createdAt,value
2023-05-21T00:00:45.904Z,3.83
2023-05-21T00:03:16.332Z,3.79
2023-05-21T00:05:47.342Z,3.99
2023-05-21T00:08:15.625Z,3.99
2023-05-21T00:10:43.603Z,4.17
2023-05-21T00:13:11.694Z,4.10
2023-05-21T00:15:40.025Z,3.81
2023-05-21T00:18:08.084Z,3.89
2023-05-21T00:20:37.619Z,3.95
2023-05-21T00:23:05.685Z,3.86
2023-05-21T00:25:33.904Z,3.89
2023-05-21T00:28:02.348Z,3.79
2023-05-21T00:30:30.431Z,3.93
2023-05-21T00:33:02.948Z,3.85
2023-05-21T00:35:31.567Z,3.61
2023-05-21T00:38:01.881Z,3.67
2023-05-21T00:40:29.887Z,3.50
2023-05-21T00:42:58.320Z,3.42
2023-05-21T00:45:26.341Z,3.40
2023-05-21T00:47:55.710Z,3.42
2023-05-21T00:50:24.625Z,3.49
2023-05-21T00:52:53.420Z,3.51
2023-05-21T00:55:23.182Z,3.52
2023-05-21T00:57:51.623Z,3.41
2023-05-21T01:00:20.354Z,3.34
2023-05-21T01:02:50.749Z,3.22
2023-05-21T01:05:18.883Z,3.17
2023-05-21T01:07:48.412Z,3.02
2023-05-21T01:10:16.597Z,3.34
2023-05-21T01:12:48.882Z,3.39
2023-05-21T01:15:17.571Z,3.34
2023-05-21T01:17:46.591Z,3.42
2023-05-21T01:20:18.294Z,3.32
2023-05-21T01:22:53.936Z,3.29
2023-05-21T01:25:22.230Z,3.29
2023-05-21T01:27:50.347Z,3.24
2023-05-21T01:30:20.182Z,3.21
2023-05-21T01:32:54.216Z,3.28
2023-05-21T01:35:27.015Z,3.40
2023-05-21T01:38:03.503Z,3.54
2023-05-21T01:40:38.390Z,3.42
2023-05-21T01:43:08.551Z,3.34
2023-05-21T01:45:39.431Z,3.26
2023-05-21T01:48:09.326Z,3.07
2023-05-21T01:50:39.581Z,2.99
2023-05-21T01:53:08.967Z,3.22
2023-05-21T01:55:39.711Z,3.19
2023-05-21T01:58:08.412Z,3.17
2023-05-21T02:00:37.623Z,3.12
2023-05-21T02:03:05.778Z,3.21
2023-05-21T02:05:33.966Z,3.28
2023-05-21T02:08:02.496Z,3.19
2023-05-21T02:10:31.861Z,3.22
2023-05-21T02:13:00.082Z,3.39
2023-05-21T02:15:28.399Z,3.45
2023-05-21T02:17:56.563Z,3.49
2023-05-21T02:20:24.635Z,3.49
2023-05-21T02:22:52.723Z,3.51
2023-05-21T02:25:20.882Z,3.57
2023-05-21T02:27:58.949Z,3.58
2023-05-21T02:30:26.997Z,3.58
2023-05-21T02:32:55.285Z,3.46
2023-05-21T02:35:23.427Z,3.62
2023-05-21T02:37:51.593Z,3.48
2023-05-21T02:40:19.774Z,3.46
2023-05-21T02:42:48.108Z,3.52
2023-05-21T02:45:17.519Z,3.52
2023-05-21T02:47:45.677Z,3.68
2023-05-21T02:50:15.264Z,3.82
2023-05-21T02:52:43.221Z,3.72
2023-05-21T02:55:14.242Z,3.63
2023-05-21T02:57:42.312Z,3.61
2023-05-21T03:00:11.756Z,3.67
2023-05-21T03:02:41.587Z,3.68
2023-05-21T03:05:09.976Z,3.79
2023-05-21T03:07:37.997Z,3.70
2023-05-21T03:10:07.176Z,3.79
2023-05-21T03:12:35.292Z,3.86
2023-05-21T03:15:03.495Z,3.91
2023-05-21T03:17:32.231Z,4.00
2023-05-21T03:20:01.892Z,4.10
2023-05-21T03:22:29.945Z,4.33
2023-05-21T03:25:01.811Z,4.49
2023-05-21T03:27:30.020Z,4.79
2023-05-21T03:29:59.553Z,4.93
2023-05-21T03:32:27.658Z,5.22
2023-05-21T03:34:55.889Z,5.58
2023-05-21T03:37:25.581Z,5.93
2023-05-21T03:39:53.549Z,6.28
2023-05-21T03:42:21.715Z,6.49
2023-05-21T03:44:49.669Z,6.74
2023-05-21T03:47:20.754Z,7.03
2023-05-21T03:49:52.293Z,7.34
2023-05-21T03:52:20.232Z,7.64
2023-05-21T03:54:49.720Z,7.96
2023-05-21T03:57:18.048Z,8.54
2023-05-21T03:59:46.240Z,8.96
2023-05-21T04:02:14.375Z,9.24
2023-05-21T04:04:43.553Z,9.29
2023-05-21T04:07:14.731Z,9.51
2023-05-21T04:09:43.045Z,9.55
2023-05-21T04:12:12.573Z,9.58
2023-05-21T04:14:42.894Z,9.55
2023-05-21T04:17:12.820Z,9.56
2023-05-21T04:19:41.051Z,9.60
2023-05-21T04:22:09.175Z,9.96
2023-05-21T04:24:38.241Z,10.20
2023-05-21T04:27:07.222Z,10.30
2023-05-21T04:29:37.690Z,10.44
2023-05-21T04:32:06.333Z,10.78
2023-05-21T04:34:35.064Z,11.11
2023-05-21T04:37:03.289Z,11.24
2023-05-21T04:39:31.850Z,11.39
2023-05-21T04:42:00.151Z,11.76
2023-05-21T04:44:28.159Z,11.82
2023-05-21T04:47:00.597Z,12.28
2023-05-21T04:49:28.829Z,12.42
2023-05-21T04:51:57.780Z,12.62
2023-05-21T04:54:26.118Z,12.76
2023-05-21T04:56:54.244Z,12.95
2023-05-21T04:59:22.922Z,13.20
2023-05-21T05:01:51.026Z,13.18
2023-05-21T05:04:20.622Z,13.23
2023-05-21T05:06:48.688Z,13.64
2023-05-21T05:09:16.850Z,13.61
2023-05-21T05:11:44.934Z,13.76
2023-05-21T05:14:12.927Z,14.06
2023-05-21T05:16:41.300Z,14.23
2023-05-21T05:19:09.395Z,14.26
2023-05-21T05:21:38.893Z,14.09
2023-05-21T05:24:07.693Z,14.31
2023-05-21T05:26:35.842Z,14.25
2023-05-21T05:29:03.887Z,14.28
2023-05-21T05:31:32.065Z,14.23
2023-05-21T05:34:00.177Z,14.26
2023-05-21T05:36:28.331Z,14.28
2023-05-21T05:38:57.740Z,14.21
2023-05-21T05:41:27.108Z,14.13
2023-05-21T05:43:55.246Z,14.19
2023-05-21T05:46:23.341Z,13.90
2023-05-21T05:48:51.435Z,13.59
2023-05-21T05:51:19.665Z,13.69
2023-05-21T05:53:47.854Z,13.40
2023-05-21T05:56:17.873Z,13.99
2023-05-21T05:58:45.907Z,14.00
2023-05-21T06:01:14.458Z,13.93
2023-05-21T06:03:42.757Z,13.99
2023-05-21T06:06:11.277Z,14.40
2023-05-21T06:08:40.628Z,14.69
2023-05-21T06:11:08.730Z,15.05
2023-05-21T06:13:38.419Z,15.17
2023-05-21T06:16:07.648Z,15.35
2023-05-21T06:18:35.913Z,15.43
2023-05-21T06:21:04.054Z,15.93
2023-05-21T06:23:32.713Z,16.34
2023-05-21T06:26:00.986Z,16.29
2023-05-21T06:28:28.994Z,16.19
2023-05-21T06:30:58.660Z,16.12
2023-05-21T06:33:27.567Z,16.27
2023-05-21T06:35:55.763Z,16.51
2023-05-21T06:38:23.993Z,16.48
2023-05-21T06:40:52.168Z,16.30
2023-05-21T06:43:21.513Z,16.56
2023-05-21T06:45:49.937Z,16.96
2023-05-21T06:48:19.476Z,16.44
2023-05-21T06:50:47.487Z,16.28
2023-05-21T06:53:16.587Z,16.31
2023-05-21T06:55:45.676Z,16.79
2023-05-21T06:58:13.609Z,17.23
2023-05-21T07:00:41.789Z,17.03
2023-05-21T07:03:09.989Z,17.47
2023-05-21T07:05:39.972Z,17.39
2023-05-21T07:08:09.088Z,17.86
2023-05-21T07:10:38.145Z,17.98
2023-05-21T07:13:06.206Z,17.88
2023-05-21T07:15:34.425Z,18.08
2023-05-21T07:18:02.679Z,18.46
2023-05-21T07:20:30.976Z,18.65
2023-05-21T07:23:00.620Z,18.92
2023-05-21T07:25:28.709Z,18.81
2023-05-21T07:27:56.688Z,18.86
2023-05-21T07:30:27.637Z,18.94
2023-05-21T07:32:55.891Z,19.48
2023-05-21T07:35:23.964Z,19.86
2023-05-21T07:37:51.964Z,20.02
2023-05-21T07:40:21.673Z,20.05
2023-05-21T07:42:49.574Z,19.53
2023-05-21T07:45:17.529Z,19.50
2023-05-21T07:47:46.408Z,19.43
2023-05-21T07:50:15.358Z,19.33
2023-05-21T07:52:43.455Z,19.27
2023-05-21T07:55:15.665Z,19.24
2023-05-21T07:57:45.524Z,19.38
2023-05-21T08:00:17.461Z,19.17
2023-05-21T08:02:45.685Z,19.02
2023-05-21T08:05:14.010Z,19.04
2023-05-21T08:07:42.410Z,19.12
2023-05-21T08:10:10.998Z,18.99
2023-05-21T08:12:39.023Z,19.00
2023-05-21T08:15:09.692Z,18.95
2023-05-21T08:17:37.687Z,18.82
2023-05-21T08:20:09.087Z,18.19
2023-05-21T08:22:37.245Z,18.16
2023-05-21T08:25:05.718Z,18.33
2023-05-21T08:27:33.814Z,18.47
2023-05-21T08:30:02.018Z,18.66
2023-05-21T08:32:31.559Z,18.71
2023-05-21T08:35:00.836Z,19.36
2023-05-21T08:37:29.008Z,19.75
2023-05-21T08:39:56.967Z,20.47
2023-05-21T08:42:37.049Z,20.44
2023-05-21T08:45:07.286Z,20.01
2023-05-21T08:47:37.969Z,20.08
2023-05-21T08:50:06.748Z,21.14
2023-05-21T08:52:34.829Z,21.70
2023-05-21T08:55:04.963Z,21.75
2023-05-21T08:57:32.965Z,21.73
2023-05-21T09:00:01.881Z,21.59
2023-05-21T09:02:34.443Z,21.18
2023-05-21T09:05:05.717Z,21.72
2023-05-21T09:07:40.960Z,21.47
2023-05-21T09:10:13.289Z,21.32
2023-05-21T09:12:41.798Z,21.16
2023-05-21T09:15:10.877Z,21.63
2023-05-21T09:17:39.032Z,21.69
2023-05-21T09:20:12.532Z,21.36
2023-05-21T09:22:45.147Z,21.53
2023-05-21T09:25:14.563Z,21.37
2023-05-21T09:27:42.620Z,21.16
2023-05-21T09:30:15.557Z,21.42
2023-05-21T09:32:46.228Z,21.85
2023-05-21T09:35:16.447Z,21.82
2023-05-21T09:37:45.332Z,21.07
2023-05-21T09:40:15.460Z,21.10
2023-05-21T09:42:47.138Z,20.93
2023-05-21T09:45:19.566Z,21.07
2023-05-21T09:47:49.063Z,21.07
2023-05-21T09:50:24.765Z,20.74
2023-05-21T09:52:54.026Z,20.76
2023-05-21T09:55:24.904Z,21.29
2023-05-21T09:57:53.449Z,21.45
2023-05-21T10:00:22.896Z,21.23
2023-05-21T10:02:54.570Z,21.38
2023-05-21T10:05:28.302Z,21.65
2023-05-21T10:08:01.149Z,21.47
2023-05-21T10:10:30.976Z,21.10
2023-05-21T10:13:01.824Z,21.30
2023-05-21T10:15:33.640Z,21.25
2023-05-21T10:18:04.807Z,21.30
2023-05-21T10:20:34.774Z,21.57
2023-05-21T10:23:03.116Z,21.81
2023-05-21T10:25:32.778Z,21.49
2023-05-21T10:28:03.939Z,22.06
2023-05-21T10:30:33.076Z,21.96
2023-05-21T10:33:03.163Z,22.07
2023-05-21T10:35:31.220Z,21.20
2023-05-21T10:38:03.352Z,21.06
2023-05-21T10:40:31.887Z,21.29
2023-05-21T10:43:26.532Z,21.52
2023-05-21T10:46:17.727Z,21.85
2023-05-21T10:49:07.721Z,21.92
2023-05-21T10:51:46.409Z,21.87
2023-05-21T10:54:40.159Z,21.46
2023-05-21T10:57:15.886Z,21.70
2023-05-21T10:59:45.075Z,22.08
2023-05-21T11:02:16.291Z,21.67
2023-05-21T11:04:49.197Z,21.49
2023-05-21T11:07:24.494Z,21.33
2023-05-21T11:09:56.315Z,21.28
2023-05-21T11:12:24.346Z,21.35
2023-05-21T11:14:58.418Z,20.95
2023-05-21T11:17:40.750Z,21.05
2023-05-21T11:20:11.947Z,21.26
2023-05-21T11:22:40.087Z,21.60
2023-05-21T11:25:10.116Z,21.85
2023-05-21T11:27:39.279Z,21.98
2023-05-21T11:30:08.749Z,21.40
2023-05-21T11:32:41.127Z,21.29
2023-05-21T11:35:10.236Z,21.27
2023-05-21T11:37:41.953Z,21.23
2023-05-21T11:40:27.214Z,21.62
2023-05-21T11:42:56.420Z,22.15
2023-05-21T11:45:29.462Z,21.71
2023-05-21T11:47:59.190Z,21.74
2023-05-21T11:50:27.467Z,21.81
2023-05-21T11:52:56.070Z,21.68
2023-05-21T11:55:27.663Z,21.46
2023-05-21T11:57:56.541Z,21.37
2023-05-21T12:00:24.637Z,21.12
2023-05-21T12:02:55.935Z,20.79
2023-05-21T12:05:27.168Z,20.36
2023-05-21T12:07:57.648Z,20.38
2023-05-21T12:10:27.001Z,20.45
2023-05-21T12:12:57.251Z,20.75
2023-05-21T12:15:27.552Z,20.49
2023-05-21T12:17:56.877Z,20.72
2023-05-21T12:20:27.210Z,20.53
2023-05-21T12:22:55.180Z,20.66
2023-05-21T12:25:23.396Z,20.83
2023-05-21T12:27:58.064Z,20.94
2023-05-21T12:30:26.817Z,20.60
2023-05-21T12:32:56.849Z,20.42
2023-05-21T12:35:25.111Z,20.50
2023-05-21T12:37:56.035Z,20.61
2023-05-21T12:40:37.216Z,20.43
2023-05-21T12:43:07.319Z,20.51
2023-05-21T12:45:36.757Z,20.34
2023-05-21T12:48:07.526Z,20.58
2023-05-21T12:50:36.460Z,20.95
2023-05-21T12:53:04.600Z,21.18
2023-05-21T12:55:33.080Z,21.25
2023-05-21T12:58:08.799Z,21.02
2023-05-21T13:00:38.257Z,21.11
2023-05-21T13:03:07.489Z,20.90
2023-05-21T13:05:36.202Z,21.14
2023-05-21T13:08:04.548Z,21.23
2023-05-21T13:10:32.692Z,21.03
2023-05-21T13:13:03.101Z,21.16
2023-05-21T13:15:33.273Z,21.07
2023-05-21T13:18:01.869Z,21.26
2023-05-21T13:20:30.186Z,21.42
2023-05-21T13:22:58.615Z,21.50
2023-05-21T13:25:29.241Z,21.59
2023-05-21T13:27:58.418Z,21.39
2023-05-21T13:30:26.598Z,21.65
2023-05-21T13:32:56.451Z,21.90
2023-05-21T13:35:24.653Z,21.51
2023-05-21T13:37:55.099Z,21.69
2023-05-21T13:40:23.830Z,21.82
2023-05-21T13:42:51.815Z,21.70
2023-05-21T13:45:21.551Z,21.63
2023-05-21T13:47:49.645Z,21.71
2023-05-21T13:50:19.158Z,21.76
2023-05-21T13:52:47.498Z,21.51
2023-05-21T13:55:16.870Z,21.28
2023-05-21T13:57:45.792Z,21.06
2023-05-21T14:00:16.220Z,21.14
2023-05-21T14:02:45.122Z,21.31
2023-05-21T14:05:13.990Z,21.57
2023-05-21T14:07:43.577Z,21.67
2023-05-21T14:10:12.369Z,21.61
2023-05-21T14:12:40.874Z,21.48
2023-05-21T14:15:10.234Z,21.54
2023-05-21T14:17:40.246Z,21.32
2023-05-21T14:20:09.813Z,21.17
2023-05-21T14:22:37.937Z,21.33
2023-05-21T14:25:08.858Z,21.52
2023-05-21T14:27:38.652Z,21.56
2023-05-21T14:30:07.690Z,21.40
2023-05-21T14:32:37.179Z,21.23
2023-05-21T14:35:06.315Z,21.13
2023-05-21T14:37:34.354Z,21.07
2023-05-21T14:40:02.431Z,21.16
2023-05-21T14:42:32.187Z,21.11
2023-05-21T14:45:07.417Z,21.42
2023-05-21T14:47:46.116Z,21.42
2023-05-21T14:50:14.349Z,21.17
2023-05-21T14:52:43.235Z,21.34
2023-05-21T14:55:12.453Z,21.32
2023-05-21T14:57:41.833Z,21.13
2023-05-21T15:00:11.658Z,21.29
2023-05-21T15:02:40.916Z,21.12
2023-05-21T15:05:12.254Z,21.06
2023-05-21T15:07:40.373Z,21.07
2023-05-21T15:10:09.935Z,21.19
2023-05-21T15:12:38.041Z,21.27
2023-05-21T15:15:08.617Z,20.91
2023-05-21T15:17:37.205Z,20.49
2023-05-21T15:20:06.225Z,20.01
2023-05-21T15:22:34.725Z,20.07
2023-05-21T15:25:03.682Z,20.14
2023-05-21T15:27:31.796Z,20.43
2023-05-21T15:30:00.239Z,20.73
2023-05-21T15:32:29.809Z,20.70
2023-05-21T15:34:58.183Z,20.23
2023-05-21T15:37:26.626Z,20.02
2023-05-21T15:39:54.818Z,20.14
2023-05-21T15:42:22.834Z,20.54
2023-05-21T15:44:50.786Z,20.09
2023-05-21T15:47:19.268Z,20.30
2023-05-21T15:49:48.770Z,20.30
2023-05-21T15:52:17.050Z,20.44
2023-05-21T15:54:45.123Z,20.48
2023-05-21T15:57:13.308Z,20.35
2023-05-21T15:59:41.440Z,20.44
2023-05-21T16:02:10.570Z,20.51
2023-05-21T16:04:38.681Z,20.28
2023-05-21T16:07:08.133Z,20.47
2023-05-21T16:09:37.729Z,20.35
2023-05-21T16:12:06.292Z,20.48
2023-05-21T16:14:36.754Z,20.43
2023-05-21T16:17:04.981Z,20.39
2023-05-21T16:19:33.093Z,20.46
2023-05-21T16:22:01.657Z,20.34
2023-05-21T16:24:31.165Z,20.50
2023-05-21T16:26:59.369Z,20.11
2023-05-21T16:29:27.424Z,20.52
2023-05-21T16:31:55.633Z,20.54
2023-05-21T16:34:23.698Z,20.34
2023-05-21T16:36:52.276Z,20.26
2023-05-21T16:39:22.921Z,20.34
2023-05-21T16:41:54.008Z,20.05
2023-05-21T16:44:22.039Z,19.87
2023-05-21T16:46:52.513Z,19.89
2023-05-21T16:49:20.791Z,19.96
2023-05-21T16:51:48.763Z,19.78
2023-05-21T16:54:16.964Z,20.10
2023-05-21T16:56:45.079Z,19.92
2023-05-21T16:59:14.372Z,19.67
2023-05-21T17:01:43.874Z,19.50
2023-05-21T17:04:12.258Z,19.50
2023-05-21T17:06:40.165Z,19.69
2023-05-21T17:09:08.216Z,19.40
2023-05-21T17:11:36.307Z,19.30
2023-05-21T17:14:04.268Z,19.48
2023-05-21T17:16:33.884Z,19.44
2023-05-21T17:19:02.135Z,19.51
2023-05-21T17:21:30.198Z,19.58
2023-05-21T17:23:58.280Z,19.23
2023-05-21T17:26:26.549Z,18.96
2023-05-21T17:28:54.629Z,18.99
2023-05-21T17:31:23.180Z,18.76
2023-05-21T17:33:52.674Z,18.53
2023-05-21T17:36:23.376Z,18.22
2023-05-21T17:38:51.897Z,18.11
2023-05-21T17:41:19.955Z,18.20
2023-05-21T17:43:47.911Z,18.17
2023-05-21T17:46:18.080Z,18.03
2023-05-21T17:48:46.210Z,17.99
2023-05-21T17:51:15.558Z,17.75
2023-05-21T17:53:43.752Z,17.76
2023-05-21T17:56:12.000Z,17.71
2023-05-21T17:58:39.904Z,17.72
2023-05-21T18:01:08.259Z,17.75
2023-05-21T18:03:36.571Z,17.49
2023-05-21T18:06:05.065Z,17.58
2023-05-21T18:08:34.486Z,17.49
2023-05-21T18:11:02.707Z,17.47
2023-05-21T18:13:30.941Z,17.49
2023-05-21T18:15:59.979Z,17.47
2023-05-21T18:18:27.978Z,17.43
2023-05-21T18:20:55.923Z,17.43
2023-05-21T18:23:23.945Z,17.70
2023-05-21T18:25:53.351Z,17.64
2023-05-21T18:28:21.613Z,17.50
2023-05-21T18:30:49.667Z,17.16
2023-05-21T18:33:18.003Z,17.27
2023-05-21T18:35:45.945Z,17.14
2023-05-21T18:38:14.330Z,17.27
2023-05-21T18:40:42.596Z,17.66
2023-05-21T18:43:11.995Z,17.76
2023-05-21T18:45:40.051Z,17.44
2023-05-21T18:48:08.459Z,16.73
2023-05-21T18:50:37.286Z,16.27
2023-05-21T18:53:06.357Z,16.01
2023-05-21T18:55:35.629Z,15.87
2023-05-21T18:58:03.666Z,15.61
2023-05-21T19:00:34.277Z,15.47
2023-05-21T19:03:02.509Z,15.39
2023-05-21T19:05:30.654Z,15.31
2023-05-21T19:07:59.512Z,15.31
2023-05-21T19:10:27.764Z,15.18
2023-05-21T19:12:55.821Z,15.01
2023-05-21T19:15:23.960Z,15.00
2023-05-21T19:17:53.473Z,14.91
2023-05-21T19:20:26.545Z,14.72
2023-05-21T19:22:55.398Z,14.46
2023-05-21T19:25:23.535Z,14.49
2023-05-21T19:27:52.946Z,14.66
2023-05-21T19:30:20.982Z,14.33
2023-05-21T19:32:49.118Z,14.24
2023-05-21T19:35:18.856Z,14.10
2023-05-21T19:37:46.959Z,14.03
2023-05-21T19:40:17.622Z,14.00
2023-05-21T19:42:45.944Z,13.76
2023-05-21T19:45:15.580Z,13.44
2023-05-21T19:47:44.524Z,13.27
2023-05-21T19:50:12.882Z,13.15
2023-05-21T19:52:42.329Z,12.91
2023-05-21T19:55:10.871Z,12.51
2023-05-21T19:57:39.901Z,12.25
2023-05-21T20:00:10.510Z,12.05
2023-05-21T20:02:38.591Z,11.76
2023-05-21T20:05:07.649Z,11.66
2023-05-21T20:07:35.691Z,11.93
2023-05-21T20:10:06.534Z,11.78
2023-05-21T20:12:34.832Z,11.83
2023-05-21T20:15:06.978Z,11.95
2023-05-21T20:17:36.209Z,11.79
2023-05-21T20:20:11.238Z,11.20
2023-05-21T20:22:41.141Z,11.28
2023-05-21T20:25:11.030Z,11.01
2023-05-21T20:27:39.921Z,10.90
2023-05-21T20:30:09.507Z,10.91
2023-05-21T20:32:38.197Z,11.24
2023-05-21T20:35:08.959Z,10.89
2023-05-21T20:37:37.011Z,10.88
2023-05-21T20:40:07.071Z,10.46
2023-05-21T20:42:36.770Z,10.33
2023-05-21T20:45:05.325Z,10.10
2023-05-21T20:47:33.981Z,10.24
2023-05-21T20:50:02.895Z,10.19
2023-05-21T20:52:31.003Z,10.26
2023-05-21T20:55:00.148Z,10.22
2023-05-21T20:57:28.550Z,10.42
2023-05-21T20:59:57.999Z,10.44
2023-05-21T21:02:27.051Z,10.30
2023-05-21T21:04:56.326Z,10.25
2023-05-21T21:07:24.426Z,10.57
2023-05-21T21:09:52.500Z,10.39
2023-05-21T21:14:51.998Z,10.03
2023-05-21T21:17:21.729Z,10.09
2023-05-21T21:19:49.836Z,9.86
2023-05-21T21:22:18.688Z,9.77
2023-05-21T21:24:46.763Z,9.68
2023-05-21T21:27:14.722Z,9.59
2023-05-21T21:29:42.765Z,9.64
2023-05-21T21:32:10.948Z,9.51
2023-05-21T21:34:40.370Z,9.45
2023-05-21T21:37:08.531Z,9.36
2023-05-21T21:39:36.585Z,9.28
2023-05-21T21:42:04.883Z,9.20
2023-05-21T21:44:32.960Z,9.13
2023-05-21T21:47:01.037Z,8.96
2023-05-21T21:49:29.019Z,9.05
2023-05-21T21:51:59.609Z,8.94
2023-05-21T21:54:28.293Z,8.82
2023-05-21T21:56:56.519Z,8.84
2023-05-21T21:59:24.582Z,8.93
2023-05-21T22:01:52.709Z,8.92
2023-05-21T22:04:20.807Z,8.70
2023-05-21T22:06:48.932Z,8.85
2023-05-21T22:09:18.427Z,8.88
2023-05-21T22:11:46.652Z,9.20
2023-05-21T22:14:14.766Z,9.14
2023-05-21T22:16:43.298Z,9.15
2023-05-21T22:19:12.941Z,8.92
2023-05-21T22:21:42.102Z,8.77
2023-05-21T22:24:20.631Z,8.76
2023-05-21T22:26:59.850Z,8.73
2023-05-21T22:29:27.953Z,9.03
2023-05-21T22:31:56.179Z,8.68
2023-05-21T22:34:25.538Z,8.48
2023-05-21T22:36:53.989Z,8.52
2023-05-21T22:39:22.049Z,8.40
2023-05-21T22:41:50.255Z,8.28
2023-05-21T22:44:20.443Z,8.24
2023-05-21T22:46:49.534Z,8.18
2023-05-21T22:49:17.691Z,8.43
2023-05-21T22:51:46.505Z,8.39
2023-05-21T22:54:14.583Z,8.70
2023-05-21T22:56:43.331Z,8.64
2023-05-21T22:59:11.334Z,8.29
2023-05-21T23:01:40.934Z,8.20
2023-05-21T23:04:09.201Z,8.07
2023-05-21T23:06:37.206Z,7.89
2023-05-21T23:09:05.297Z,7.83
2023-05-21T23:11:33.528Z,7.72
2023-05-21T23:14:01.618Z,7.72
2023-05-21T23:16:30.909Z,7.80
2023-05-21T23:19:01.357Z,7.67
2023-05-21T23:21:29.369Z,7.67
2023-05-21T23:23:57.432Z,7.60
2023-05-21T23:26:26.106Z,7.55
2023-05-21T23:28:54.061Z,7.67
2023-05-21T23:31:22.300Z,7.48
2023-05-21T23:33:51.878Z,7.49
2023-05-21T23:36:21.425Z,7.21
2023-05-21T23:38:49.515Z,7.06
2023-05-21T23:41:17.701Z,7.11
2023-05-21T23:43:45.766Z,7.04
2023-05-21T23:46:13.807Z,7.06
2023-05-21T23:48:42.077Z,7.12
2023-05-21T23:51:10.080Z,6.98
2023-05-21T23:53:39.552Z,7.00
2023-05-21T23:56:08.213Z,6.97
2023-05-21T23:58:36.146Z,6.80
